createdAt,value
2023-04-30T06:20:04.404Z,84.13
2023-04-30T06:22:18.806Z,82.71
2023-04-30T06:24:30.812Z,81.20
2023-04-30T06:26:46.518Z,81.38
2023-04-30T06:29:01.635Z,81.92
2023-04-30T06:31:22.784Z,81.11
2023-04-30T06:33:47.421Z,80.62
2023-04-30T06:36:07.861Z,80.67
2023-04-30T06:37:09.303Z,79.87
2023-04-30T06:38:10.785Z,79.58
2023-04-30T06:39:15.429Z,79.34
2023-04-30T06:40:17.008Z,78.37
2023-04-30T06:41:19.280Z,77.90
2023-04-30T06:42:20.771Z,77.30
2023-04-30T06:43:22.103Z,76.54
2023-04-30T06:44:23.843Z,77.54
2023-04-30T06:45:25.233Z,76.93
2023-04-30T06:47:36.315Z,77.66
2023-04-30T06:49:53.236Z,78.29
2023-04-30T06:52:06.929Z,78.03
2023-04-30T06:53:08.291Z,78.32
2023-04-30T06:54:09.874Z,78.08
2023-04-30T06:56:21.317Z,78.45
2023-04-30T06:57:22.673Z,78.42
2023-04-30T06:58:24.167Z,78.20
2023-04-30T06:59:25.753Z,77.66
2023-04-30T07:00:27.371Z,77.88
2023-04-30T07:01:28.974Z,76.58
2023-04-30T07:02:30.485Z,75.58
2023-04-30T07:03:33.807Z,75.69
2023-04-30T07:04:35.403Z,74.86
2023-04-30T07:05:36.938Z,74.52
2023-04-30T07:06:38.401Z,73.81
2023-04-30T07:07:39.821Z,73.40
2023-04-30T07:08:41.553Z,73.85
2023-04-30T07:09:42.918Z,76.39
2023-04-30T07:10:44.315Z,75.33
2023-04-30T07:11:45.703Z,74.60
2023-04-30T07:12:47.121Z,75.69
2023-04-30T07:13:48.492Z,73.92
2023-04-30T07:14:49.993Z,74.67
2023-04-30T07:15:51.794Z,73.94
2023-04-30T07:16:53.374Z,73.34
2023-04-30T07:17:55.310Z,72.55
2023-04-30T07:18:56.769Z,71.43
2023-04-30T07:19:58.257Z,70.83
2023-04-30T07:20:59.665Z,70.26
2023-04-30T07:22:01.221Z,69.64
2023-04-30T07:23:02.708Z,71.35
2023-04-30T07:24:04.316Z,69.82
2023-04-30T07:25:06.260Z,70.42
2023-04-30T07:26:07.686Z,70.63
2023-04-30T07:27:09.092Z,70.07
2023-04-30T07:28:10.958Z,68.80
2023-04-30T07:29:12.546Z,68.04
2023-04-30T07:30:13.939Z,67.50
2023-04-30T07:31:15.426Z,69.61
2023-04-30T07:32:17.037Z,68.95
2023-04-30T07:33:18.602Z,69.94
2023-04-30T07:34:20.026Z,68.54
2023-04-30T07:35:21.422Z,67.39
2023-04-30T07:36:23.116Z,68.30
2023-04-30T07:37:24.576Z,67.12
2023-04-30T07:38:26.021Z,67.02
2023-04-30T07:39:27.647Z,66.51
2023-04-30T07:41:36.137Z,66.44
2023-04-30T07:42:37.557Z,65.61
2023-04-30T07:43:42.472Z,64.75
2023-04-30T07:44:43.958Z,64.67
2023-04-30T07:45:45.539Z,63.58
2023-04-30T07:46:47.309Z,63.82
2023-04-30T07:47:48.825Z,64.51
2023-04-30T07:48:50.436Z,64.00
2023-04-30T07:49:51.972Z,64.11
2023-04-30T07:50:53.596Z,64.08
2023-04-30T07:51:54.985Z,64.77
2023-04-30T07:52:56.350Z,66.96
2023-04-30T07:53:57.740Z,67.88
2023-04-30T07:54:59.243Z,68.04
2023-04-30T07:56:00.604Z,66.48
2023-04-30T07:57:03.338Z,64.80
2023-04-30T07:58:04.834Z,63.83
2023-04-30T07:59:06.401Z,63.49
2023-04-30T08:00:08.395Z,63.89
2023-04-30T08:01:09.881Z,65.75
2023-04-30T08:02:11.289Z,66.30
2023-04-30T08:03:12.849Z,66.63
2023-04-30T08:04:14.545Z,64.94
2023-04-30T08:05:15.930Z,64.42
2023-04-30T08:06:20.291Z,65.58
2023-04-30T08:07:22.304Z,65.97
2023-04-30T08:08:23.724Z,65.92
2023-04-30T08:09:25.132Z,67.62
2023-04-30T08:10:26.742Z,66.62
2023-04-30T08:11:28.092Z,65.83
2023-04-30T08:12:29.571Z,64.91
2023-04-30T08:13:31.933Z,64.28
2023-04-30T08:14:33.377Z,64.78
2023-04-30T08:15:37.649Z,63.57
2023-04-30T08:16:39.221Z,62.51
2023-04-30T08:17:40.690Z,62.65
2023-04-30T08:18:44.830Z,62.11
2023-04-30T08:19:46.172Z,61.31
2023-04-30T08:20:48.592Z,62.21
2023-04-30T08:21:50.145Z,62.49
2023-04-30T08:22:51.896Z,60.19
2023-04-30T08:23:53.659Z,62.10
2023-04-30T08:24:55.703Z,65.74
2023-04-30T08:25:57.172Z,63.97
2023-04-30T08:27:00.499Z,62.67
2023-04-30T08:28:02.028Z,62.06
2023-04-30T08:29:03.452Z,59.67
2023-04-30T08:30:07.332Z,58.75
2023-04-30T08:31:08.742Z,59.54
2023-04-30T08:32:10.275Z,59.44
2023-04-30T08:33:11.855Z,57.29
2023-04-30T08:34:13.314Z,57.00
2023-04-30T08:35:16.847Z,59.44
2023-04-30T08:36:18.327Z,59.00
2023-04-30T08:37:19.906Z,58.48
2023-04-30T08:38:21.266Z,59.29
2023-04-30T08:39:22.691Z,58.90
2023-04-30T08:40:38.306Z,58.77
2023-04-30T08:41:48.776Z,60.49
2023-04-30T08:43:07.703Z,60.81
2023-04-30T08:44:11.213Z,59.28
2023-04-30T08:45:16.290Z,58.46
2023-04-30T08:46:18.202Z,58.88
2023-04-30T08:47:20.823Z,58.26
2023-04-30T08:48:24.756Z,56.77
2023-04-30T08:49:28.170Z,59.13
2023-04-30T08:50:29.787Z,60.12
2023-04-30T08:51:33.094Z,59.82
2023-04-30T08:52:35.861Z,61.49
2023-04-30T08:53:40.675Z,63.05
2023-04-30T08:54:44.219Z,61.48
2023-04-30T08:55:46.730Z,61.77
2023-04-30T08:56:48.149Z,60.99
2023-04-30T08:57:49.619Z,59.48
2023-04-30T08:58:51.140Z,61.64
2023-04-30T08:59:53.661Z,63.33
2023-04-30T09:00:58.482Z,62.72
2023-04-30T09:02:01.826Z,62.10
2023-04-30T09:03:03.622Z,62.84
2023-04-30T09:04:05.878Z,62.55
2023-04-30T09:05:14.980Z,62.87
2023-04-30T09:06:17.429Z,62.27
2023-04-30T09:07:19.706Z,61.91
2023-04-30T09:08:47.886Z,61.31
2023-04-30T09:09:53.476Z,61.04
2023-04-30T09:10:55.050Z,60.72
2023-04-30T09:12:15.202Z,62.65
2023-04-30T09:13:17.654Z,61.37
2023-04-30T09:14:25.652Z,60.63
2023-04-30T09:15:27.454Z,61.58
2023-04-30T09:16:46.017Z,63.40
2023-04-30T09:17:48.583Z,63.57
2023-04-30T09:18:50.879Z,62.74
2023-04-30T09:19:53.436Z,62.78
2023-04-30T09:21:02.975Z,63.23
2023-04-30T09:22:21.283Z,63.41
2023-04-30T09:23:22.777Z,63.15
2023-04-30T09:24:25.291Z,63.12
2023-04-30T09:25:39.410Z,62.71
2023-04-30T09:26:40.743Z,61.97
2023-04-30T09:27:43.665Z,61.71
2023-04-30T09:28:56.765Z,60.42
2023-04-30T09:29:58.332Z,60.08
2023-04-30T09:30:59.712Z,60.14
2023-04-30T09:32:08.891Z,60.80
2023-04-30T09:33:12.248Z,61.45
2023-04-30T09:34:14.306Z,60.51
2023-04-30T09:35:32.278Z,59.34
2023-04-30T09:36:34.476Z,60.52
2023-04-30T09:37:37.463Z,60.54
2023-04-30T09:38:39.473Z,60.54
2023-04-30T09:39:51.806Z,60.07
2023-04-30T09:40:53.201Z,60.57
2023-04-30T09:42:07.412Z,60.44
2023-04-30T09:43:09.316Z,60.86
2023-04-30T09:44:30.451Z,60.85
2023-04-30T09:45:48.278Z,60.42
2023-04-30T09:46:50.923Z,59.76
2023-04-30T09:47:55.672Z,59.40
2023-04-30T09:49:02.960Z,59.91
2023-04-30T09:50:06.394Z,61.39
2023-04-30T09:51:08.002Z,60.39
2023-04-30T09:52:09.725Z,57.47
2023-04-30T09:53:14.186Z,59.71
2023-04-30T09:54:17.953Z,59.71
2023-04-30T09:55:21.765Z,58.85
2023-04-30T09:56:26.685Z,56.48
2023-04-30T09:57:32.289Z,56.77
2023-04-30T09:58:40.987Z,58.61
2023-04-30T09:59:46.916Z,56.15
2023-04-30T10:00:51.434Z,57.03
2023-04-30T10:01:53.698Z,57.59
2023-04-30T10:02:55.975Z,56.59
2023-04-30T10:03:58.162Z,56.88
2023-04-30T10:05:00.925Z,56.60
2023-04-30T10:06:03.682Z,55.87
2023-04-30T10:07:14.824Z,55.13
2023-04-30T10:08:31.553Z,55.63
2023-04-30T10:09:41.216Z,55.50
2023-04-30T10:10:46.844Z,54.52
2023-04-30T10:11:50.172Z,56.01
2023-04-30T10:12:56.338Z,56.63
2023-04-30T10:14:03.691Z,55.75
2023-04-30T10:15:15.027Z,55.02
2023-04-30T10:16:34.676Z,54.83
2023-04-30T10:17:44.303Z,55.37
2023-04-30T10:18:49.925Z,55.18
2023-04-30T10:19:55.378Z,54.79
2023-04-30T10:20:57.628Z,55.36
2023-04-30T10:21:59.528Z,55.69
2023-04-30T10:23:01.412Z,56.08
2023-04-30T10:24:03.690Z,55.20
2023-04-30T10:25:05.695Z,54.70
2023-04-30T10:26:08.526Z,54.89
2023-04-30T10:27:10.075Z,55.43
2023-04-30T10:28:11.640Z,54.96
2023-04-30T10:29:15.240Z,55.46
2023-04-30T10:30:17.166Z,54.70
2023-04-30T10:31:20.560Z,54.16
2023-04-30T10:32:24.231Z,54.07
2023-04-30T10:33:31.759Z,54.18
2023-04-30T10:34:35.755Z,53.87
2023-04-30T10:35:56.857Z,51.72
2023-04-30T10:37:04.121Z,52.39
2023-04-30T10:38:26.840Z,54.20
2023-04-30T10:39:29.073Z,53.18
2023-04-30T10:40:36.982Z,52.14
2023-04-30T10:41:38.939Z,54.01
2023-04-30T10:42:49.516Z,53.07
2023-04-30T10:43:51.265Z,51.36
2023-04-30T10:44:52.811Z,52.22
2023-04-30T10:45:54.221Z,53.54
2023-04-30T10:47:00.737Z,52.72
2023-04-30T10:48:03.431Z,51.90
2023-04-30T10:49:05.426Z,51.57
2023-04-30T10:50:10.541Z,51.94
2023-04-30T10:51:11.929Z,51.75
2023-04-30T10:52:13.324Z,51.37
2023-04-30T10:53:18.375Z,52.20
2023-04-30T10:54:29.201Z,53.71
2023-04-30T10:55:31.541Z,52.23
2023-04-30T10:56:33.488Z,52.53
2023-04-30T10:57:43.086Z,52.09
2023-04-30T10:58:45.391Z,52.98
2023-04-30T11:00:17.055Z,52.82
2023-04-30T11:01:18.606Z,52.31
2023-04-30T11:02:20.312Z,51.55
2023-04-30T11:03:22.274Z,52.88
2023-04-30T11:04:24.351Z,52.46
2023-04-30T11:05:46.479Z,52.16
2023-04-30T11:06:57.346Z,52.27
2023-04-30T11:07:58.829Z,51.64
2023-04-30T11:09:03.909Z,52.07
2023-04-30T11:10:08.489Z,52.03
2023-04-30T11:11:11.086Z,51.75
2023-04-30T11:12:28.247Z,52.20
2023-04-30T11:13:30.373Z,52.55
2023-04-30T11:14:34.084Z,52.52
2023-04-30T11:15:41.577Z,51.94
2023-04-30T11:16:43.167Z,51.94
2023-04-30T11:17:47.936Z,52.41
2023-04-30T11:18:51.467Z,52.40
2023-04-30T11:19:54.303Z,52.02
2023-04-30T11:20:57.561Z,50.93
2023-04-30T11:22:05.095Z,50.40
2023-04-30T11:23:11.073Z,50.89
2023-04-30T11:24:13.086Z,51.21
2023-04-30T11:25:19.797Z,50.37
2023-04-30T11:26:21.200Z,50.68
2023-04-30T11:27:26.119Z,51.02
2023-04-30T11:28:28.653Z,52.78
2023-04-30T11:29:31.640Z,51.10
2023-04-30T11:30:34.785Z,50.07
2023-04-30T11:31:36.405Z,50.35
2023-04-30T11:32:38.984Z,50.60
2023-04-30T11:33:41.360Z,50.59
2023-04-30T11:34:46.804Z,50.25
2023-04-30T11:35:52.756Z,52.26
2023-04-30T11:36:58.980Z,49.66
2023-04-30T11:38:01.716Z,51.16
2023-04-30T11:39:06.216Z,50.61
2023-04-30T11:40:11.306Z,51.14
2023-04-30T11:41:12.877Z,51.01
2023-04-30T11:42:19.627Z,50.24
2023-04-30T11:43:25.167Z,50.53
2023-04-30T11:44:27.070Z,51.16
2023-04-30T11:45:28.641Z,51.50
2023-04-30T11:46:30.103Z,52.17
2023-04-30T11:47:45.893Z,51.45
2023-04-30T11:48:47.467Z,50.45
2023-04-30T11:49:51.492Z,49.12
2023-04-30T11:50:52.874Z,50.03
2023-04-30T11:51:54.236Z,52.10
2023-04-30T11:52:57.817Z,51.83
2023-04-30T11:53:59.753Z,50.75
2023-04-30T11:55:01.258Z,52.67
2023-04-30T11:56:03.746Z,51.27
2023-04-30T11:57:06.299Z,51.92
2023-04-30T11:58:09.581Z,51.27
2023-04-30T11:59:11.275Z,51.07
2023-04-30T12:00:27.753Z,51.98
2023-04-30T12:01:29.219Z,51.76
2023-04-30T12:02:30.652Z,50.70
2023-04-30T12:03:32.601Z,50.41
2023-04-30T12:04:34.182Z,50.30
2023-04-30T12:05:35.795Z,52.18
2023-04-30T12:06:37.191Z,51.44
2023-04-30T12:07:39.126Z,52.67
2023-04-30T12:08:41.550Z,52.84
2023-04-30T12:09:56.661Z,51.29
2023-04-30T12:10:58.491Z,52.52
2023-04-30T12:12:00.037Z,51.76
2023-04-30T12:13:02.002Z,52.14
2023-04-30T12:14:05.323Z,53.87
2023-04-30T12:15:14.586Z,53.66
2023-04-30T12:16:16.132Z,52.94
2023-04-30T12:17:31.571Z,53.29
2023-04-30T12:18:33.119Z,52.35
2023-04-30T12:19:34.490Z,52.67
2023-04-30T12:20:36.203Z,52.12
2023-04-30T12:21:38.689Z,51.95
2023-04-30T12:22:41.067Z,51.88
2023-04-30T12:23:42.518Z,52.89
2023-04-30T12:24:43.928Z,52.91
2023-04-30T12:25:45.555Z,52.18
2023-04-30T12:26:47.950Z,51.78
2023-04-30T12:27:51.922Z,52.12
2023-04-30T12:28:55.714Z,51.58
2023-04-30T12:29:57.435Z,50.69
2023-04-30T12:30:59.654Z,52.27
2023-04-30T12:32:01.309Z,52.07
2023-04-30T12:33:03.658Z,51.51
2023-04-30T12:34:06.864Z,51.67
2023-04-30T12:35:09.398Z,52.43
2023-04-30T12:36:11.318Z,51.41
2023-04-30T12:37:16.724Z,50.99
2023-04-30T12:38:18.576Z,50.75
2023-04-30T12:39:19.986Z,50.25
2023-04-30T12:40:26.774Z,51.09
2023-04-30T12:41:29.920Z,51.80
2023-04-30T12:42:35.720Z,50.87
2023-04-30T12:43:37.355Z,51.14
2023-04-30T12:44:44.617Z,50.68
2023-04-30T12:45:51.819Z,49.21
2023-04-30T12:46:56.598Z,49.50
2023-04-30T12:47:58.053Z,49.41
2023-04-30T12:49:00.589Z,50.76
2023-04-30T12:50:02.984Z,52.12
2023-04-30T12:51:05.153Z,52.14
2023-04-30T12:52:10.009Z,51.58
2023-04-30T12:53:11.594Z,52.15
2023-04-30T12:54:13.067Z,51.57
2023-04-30T12:55:19.675Z,51.73
2023-04-30T12:56:22.337Z,51.81
2023-04-30T12:57:23.789Z,52.80
2023-04-30T12:58:30.866Z,53.54
2023-04-30T13:00:00.347Z,52.07
2023-04-30T13:01:01.918Z,52.32
2023-04-30T13:02:28.198Z,52.23
2023-04-30T13:03:29.877Z,50.96
2023-04-30T13:04:31.336Z,50.32
2023-04-30T13:05:32.759Z,50.37
2023-04-30T13:06:35.149Z,49.54
2023-04-30T13:07:39.658Z,49.99
2023-04-30T13:08:57.026Z,49.93
2023-04-30T13:09:59.094Z,49.90
2023-04-30T13:11:00.455Z,49.92
2023-04-30T13:12:02.193Z,50.76
2023-04-30T13:13:03.590Z,49.54
2023-04-30T13:14:04.947Z,49.24
2023-04-30T13:15:06.925Z,48.71
2023-04-30T13:16:08.694Z,49.33
2023-04-30T13:17:12.476Z,49.48
2023-04-30T13:18:15.761Z,49.92
2023-04-30T13:19:17.330Z,49.68
2023-04-30T13:20:18.790Z,49.96
2023-04-30T13:21:21.061Z,49.76
2023-04-30T13:22:23.819Z,48.19
2023-04-30T13:23:25.231Z,49.11
2023-04-30T13:24:26.666Z,48.33
2023-04-30T13:25:28.242Z,48.24
2023-04-30T13:26:29.988Z,48.61
2023-04-30T13:27:31.315Z,46.63
2023-04-30T13:28:32.649Z,47.92
2023-04-30T13:29:34.059Z,47.72
2023-04-30T13:30:36.463Z,48.05
2023-04-30T13:31:37.985Z,47.97
2023-04-30T13:32:39.628Z,47.25
2023-04-30T13:33:41.511Z,48.40
2023-04-30T13:34:42.911Z,47.87
2023-04-30T13:35:46.494Z,46.85
2023-04-30T13:36:48.708Z,47.63
2023-04-30T13:37:52.567Z,47.46
2023-04-30T13:38:54.180Z,47.93
2023-04-30T13:39:55.725Z,47.14
2023-04-30T13:41:02.908Z,48.02
2023-04-30T13:42:04.516Z,48.57
2023-04-30T13:43:05.879Z,49.05
2023-04-30T13:44:07.260Z,48.46
2023-04-30T13:45:09.476Z,47.63
2023-04-30T13:46:11.235Z,47.25
2023-04-30T13:47:12.802Z,48.12
2023-04-30T13:48:14.208Z,47.06
2023-04-30T13:49:15.984Z,46.35
2023-04-30T13:50:17.379Z,46.00
2023-04-30T13:51:19.671Z,48.54
2023-04-30T13:52:21.004Z,48.57
2023-04-30T13:53:22.689Z,48.46
2023-04-30T13:54:24.087Z,48.69
2023-04-30T13:55:25.549Z,48.22
2023-04-30T13:56:26.963Z,49.11
2023-04-30T13:57:30.033Z,48.78
2023-04-30T13:58:31.465Z,48.37
2023-04-30T13:59:33.359Z,49.43
2023-04-30T14:00:34.864Z,49.74
2023-04-30T14:01:36.432Z,50.34
2023-04-30T14:02:37.979Z,49.17
2023-04-30T14:03:39.498Z,49.07
2023-04-30T14:04:43.086Z,49.94
2023-04-30T14:05:50.437Z,50.58
2023-04-30T14:06:52.845Z,50.39
2023-04-30T14:07:54.269Z,51.12
2023-04-30T14:08:55.602Z,51.29
2023-04-30T14:09:57.209Z,51.17
2023-04-30T14:10:58.784Z,51.75
2023-04-30T14:12:00.168Z,51.02
2023-04-30T14:13:01.523Z,51.14
2023-04-30T14:14:03.330Z,50.54
2023-04-30T14:15:05.896Z,49.91
2023-04-30T14:16:07.839Z,50.46
2023-04-30T14:17:09.308Z,50.46
2023-04-30T14:18:10.846Z,51.13
2023-04-30T14:19:12.289Z,51.59
2023-04-30T14:20:14.015Z,50.21
2023-04-30T14:21:15.476Z,50.42
2023-04-30T14:22:16.918Z,49.88
2023-04-30T14:23:18.497Z,49.95
2023-04-30T14:24:20.203Z,49.75
2023-04-30T14:25:21.628Z,49.66
2023-04-30T14:26:23.019Z,50.07
2023-04-30T14:27:25.391Z,50.41
2023-04-30T14:28:26.744Z,48.89
2023-04-30T14:29:28.082Z,48.40
2023-04-30T14:30:29.502Z,48.64
2023-04-30T14:31:31.023Z,47.78
2023-04-30T14:32:32.565Z,47.95
2023-04-30T14:33:34.003Z,48.57
2023-04-30T14:34:35.429Z,49.24
2023-04-30T14:35:37.359Z,49.16
2023-04-30T14:36:38.903Z,48.99
2023-04-30T14:37:40.222Z,47.75
2023-04-30T14:38:41.822Z,48.33
2023-04-30T14:39:44.016Z,48.65
2023-04-30T14:40:45.439Z,49.14
2023-04-30T14:41:46.870Z,48.73
2023-04-30T14:42:50.612Z,49.02
2023-04-30T14:43:52.747Z,48.42
2023-04-30T14:44:54.528Z,49.17
2023-04-30T14:45:56.386Z,48.92
2023-04-30T14:46:58.149Z,48.81
2023-04-30T14:47:59.758Z,48.80
2023-04-30T14:49:01.345Z,48.68
2023-04-30T14:50:02.890Z,48.52
2023-04-30T14:51:04.721Z,49.50
2023-04-30T14:52:06.466Z,49.18
2023-04-30T14:53:09.343Z,48.79
2023-04-30T14:54:10.955Z,48.56
2023-04-30T14:55:12.461Z,48.83
2023-04-30T14:56:13.904Z,48.46
2023-04-30T14:57:15.408Z,48.00
2023-04-30T14:58:16.933Z,47.84
2023-04-30T14:59:18.357Z,46.37
2023-04-30T15:00:19.731Z,47.02
2023-04-30T15:01:21.315Z,46.96
2023-04-30T15:02:22.828Z,47.71
2023-04-30T15:03:24.349Z,48.55
2023-04-30T15:04:25.742Z,47.99
2023-04-30T15:05:28.358Z,47.45
2023-04-30T15:06:30.123Z,46.20
2023-04-30T15:07:31.634Z,45.70
2023-04-30T15:08:32.960Z,46.42
2023-04-30T15:09:34.475Z,46.90
2023-04-30T15:10:36.057Z,46.12
2023-04-30T15:11:37.534Z,45.98
2023-04-30T15:12:39.681Z,46.22
2023-04-30T15:13:41.498Z,45.87
2023-04-30T15:14:43.040Z,46.62
2023-04-30T15:15:46.928Z,45.91
2023-04-30T15:16:48.471Z,46.40
2023-04-30T15:17:49.926Z,47.49
2023-04-30T15:18:51.297Z,48.16
2023-04-30T15:19:53.453Z,46.38
2023-04-30T15:20:55.488Z,46.55
2023-04-30T15:21:56.879Z,46.84
2023-04-30T15:22:58.412Z,46.73
2023-04-30T15:23:59.769Z,47.09
2023-04-30T15:25:01.140Z,47.19
2023-04-30T15:26:04.311Z,48.00
2023-04-30T15:27:05.716Z,48.45
2023-04-30T15:28:07.121Z,47.57
2023-04-30T15:29:09.778Z,47.80
2023-04-30T15:30:11.404Z,48.34
2023-04-30T15:31:12.947Z,47.65
2023-04-30T15:32:14.733Z,47.16
2023-04-30T15:33:16.263Z,48.69
2023-04-30T15:34:17.971Z,48.19
2023-04-30T15:35:19.341Z,49.55
2023-04-30T15:36:23.177Z,49.05
2023-04-30T15:37:24.557Z,48.78
2023-04-30T15:38:26.087Z,49.14
2023-04-30T15:39:27.620Z,49.33
2023-04-30T15:40:29.069Z,48.70
2023-04-30T15:41:30.467Z,49.69
2023-04-30T15:42:31.871Z,48.56
2023-04-30T15:43:34.124Z,48.85
2023-04-30T15:44:35.580Z,49.12
2023-04-30T15:45:37.090Z,49.53
2023-04-30T15:46:38.533Z,48.54
2023-04-30T15:47:41.160Z,48.63
2023-04-30T15:48:42.620Z,48.67
2023-04-30T15:49:44.026Z,49.38
2023-04-30T15:50:45.441Z,48.99
2023-04-30T15:51:46.834Z,49.71
2023-04-30T15:52:48.251Z,49.77
2023-04-30T15:53:49.622Z,50.23
2023-04-30T15:54:51.244Z,49.87
2023-04-30T15:55:53.268Z,49.15
2023-04-30T15:56:54.704Z,50.25
2023-04-30T15:57:56.082Z,50.15
2023-04-30T15:58:57.509Z,50.68
2023-04-30T15:59:59.122Z,49.80
2023-04-30T16:01:01.899Z,48.33
2023-04-30T16:02:03.378Z,48.67
2023-04-30T16:03:04.963Z,49.95
2023-04-30T16:04:06.840Z,50.00
2023-04-30T16:05:08.926Z,50.61
2023-04-30T16:06:10.398Z,50.13
2023-04-30T16:07:12.109Z,49.98
2023-04-30T16:08:13.661Z,50.30
2023-04-30T16:09:19.476Z,50.42
2023-04-30T16:10:21.497Z,50.55
2023-04-30T16:11:24.023Z,50.52
2023-04-30T16:12:26.675Z,50.82
2023-04-30T16:13:28.048Z,51.33
2023-04-30T16:14:29.447Z,51.33
2023-04-30T16:15:31.011Z,49.81
2023-04-30T16:16:32.495Z,49.94
2023-04-30T16:17:33.922Z,51.19
2023-04-30T16:18:35.462Z,52.28
2023-04-30T16:19:36.878Z,50.80
2023-04-30T16:20:41.416Z,50.74
2023-04-30T16:21:43.529Z,50.37
2023-04-30T16:22:45.061Z,50.83
2023-04-30T16:23:49.068Z,51.12
2023-04-30T16:24:50.612Z,50.16
2023-04-30T16:25:52.022Z,50.83
2023-04-30T16:26:53.701Z,50.75
2023-04-30T16:27:55.165Z,51.56
2023-04-30T16:28:56.656Z,51.51
2023-04-30T16:29:58.319Z,51.94
2023-04-30T16:31:00.618Z,52.05
2023-04-30T16:32:02.186Z,51.15
2023-04-30T16:33:03.681Z,51.01
2023-04-30T16:34:05.119Z,50.47
2023-04-30T16:35:07.340Z,51.40
2023-04-30T16:36:09.944Z,51.57
2023-04-30T16:37:11.496Z,51.88
2023-04-30T16:38:13.071Z,52.22
2023-04-30T16:39:17.010Z,51.75
2023-04-30T16:40:18.726Z,51.57
2023-04-30T16:41:21.465Z,50.96
2023-04-30T16:42:23.043Z,52.79
2023-04-30T16:43:24.457Z,52.27
2023-04-30T16:44:25.945Z,51.69
2023-04-30T16:45:28.924Z,51.71
2023-04-30T16:46:30.485Z,51.59
2023-04-30T16:47:32.217Z,52.03
2023-04-30T16:48:33.608Z,51.61
2023-04-30T16:49:34.987Z,52.32
2023-04-30T16:50:36.481Z,52.38
2023-04-30T16:51:37.912Z,52.64
2023-04-30T16:52:39.354Z,53.19
2023-04-30T16:53:40.763Z,52.08
2023-04-30T16:54:42.144Z,52.44
2023-04-30T16:55:43.749Z,51.76
2023-04-30T16:56:45.370Z,51.62
2023-04-30T16:57:46.890Z,51.94
2023-04-30T16:58:48.307Z,53.00
2023-04-30T16:59:49.747Z,53.44
2023-04-30T17:00:56.015Z,52.53
2023-04-30T17:02:00.371Z,53.18
2023-04-30T17:03:02.312Z,53.35
2023-04-30T17:04:04.292Z,53.56
2023-04-30T17:05:06.162Z,53.93
2023-04-30T17:06:08.118Z,53.38
2023-04-30T17:07:09.554Z,53.92
2023-04-30T17:08:10.973Z,53.53
2023-04-30T17:09:12.354Z,53.89
